createdAt,value
2019-05-06T00:02:06.716Z,99875.73
2019-05-06T00:04:34.105Z,99869.89
2019-05-06T00:07:00.713Z,99867.30
2019-05-06T00:09:27.077Z,99870.02
2019-05-06T00:11:54.389Z,99868.53
2019-05-06T00:14:23.546Z,99868.88
2019-05-06T00:16:50.837Z,99876.08
2019-05-06T00:19:17.213Z,99868.84
2019-05-06T00:21:44.361Z,99866.27
2019-05-06T00:24:10.914Z,99865.16
2019-05-06T00:26:40.108Z,99862.67
2019-05-06T00:29:11.260Z,99868.41
2019-05-06T00:31:37.592Z,99863.81
2019-05-06T00:34:04.372Z,99864.59
2019-05-06T00:36:30.911Z,99868.50
2019-05-06T00:38:59.532Z,99867.11
2019-05-06T00:41:27.761Z,99869.77
2019-05-06T00:43:54.562Z,99866.91
2019-05-06T00:46:21.231Z,99861.80
2019-05-06T00:48:47.566Z,99862.37
2019-05-06T00:51:13.928Z,99864.25
2019-05-06T00:53:45.320Z,99865.11
2019-05-06T00:56:13.542Z,99863.27
2019-05-06T00:58:39.901Z,99873.03
2019-05-06T01:01:06.290Z,99868.48
2019-05-06T01:03:34.630Z,99870.98
2019-05-06T01:06:00.853Z,99863.73
2019-05-06T01:08:27.189Z,99863.47
2019-05-06T01:10:54.626Z,99872.58
2019-05-06T01:13:39.952Z,99867.06
2019-05-06T01:16:10.149Z,99861.41
2019-05-06T01:18:36.481Z,99867.52
2019-05-06T01:21:08.956Z,99868.28
2019-05-06T01:23:35.444Z,99867.16
2019-05-06T01:26:01.782Z,99864.24
2019-05-06T01:28:29.107Z,99872.03
2019-05-06T01:30:55.458Z,99865.30
2019-05-06T01:33:23.738Z,99865.89
2019-05-06T01:35:50.093Z,99862.20
2019-05-06T01:38:27.302Z,99870.84
2019-05-06T01:40:59.353Z,99868.02
2019-05-06T01:43:30.951Z,99878.07
2019-05-06T01:45:57.765Z,99872.38
2019-05-06T01:48:44.320Z,99881.06
2019-05-06T01:51:10.809Z,99883.38
2019-05-06T01:53:37.112Z,99877.88
2019-05-06T01:56:03.697Z,99879.25
2019-05-06T01:58:30.379Z,99884.84
2019-05-06T02:00:57.160Z,99890.43
2019-05-06T02:03:24.233Z,99888.63
2019-05-06T02:05:50.660Z,99895.42
2019-05-06T02:08:17.013Z,99888.34
2019-05-06T02:10:43.639Z,99894.04
2019-05-06T02:13:09.980Z,99899.09
2019-05-06T02:15:36.310Z,99899.30
2019-05-06T02:18:04.106Z,99903.30
2019-05-06T02:20:31.137Z,99899.55
2019-05-06T02:22:59.416Z,99906.64
2019-05-06T02:25:30.542Z,99906.18
2019-05-06T02:27:56.922Z,99909.57
2019-05-06T02:30:40.469Z,99911.07
2019-05-06T02:33:15.495Z,99914.19
2019-05-06T02:35:46.427Z,99895.14
2019-05-06T02:38:25.821Z,99906.15
2019-05-06T02:40:53.543Z,99901.91
2019-05-06T02:43:19.173Z,99910.73
2019-05-06T02:45:45.584Z,99908.00
2019-05-06T02:48:14.085Z,99903.06
2019-05-06T02:50:43.241Z,99893.77
2019-05-06T02:53:09.580Z,99904.62
2019-05-06T02:55:36.397Z,99915.02
2019-05-06T02:58:02.968Z,99919.09
2019-05-06T03:00:29.418Z,99915.58
2019-05-06T03:02:55.745Z,99913.76
2019-05-06T03:05:23.719Z,99914.31
2019-05-06T03:07:50.363Z,99918.42
2019-05-06T03:10:17.542Z,99916.52
2019-05-06T03:12:43.925Z,99918.97
2019-05-06T03:15:16.180Z,99923.02
2019-05-06T03:17:39.675Z,99929.05
2019-05-06T03:20:08.105Z,99931.05
2019-05-06T03:22:37.316Z,99930.48
2019-05-06T03:25:13.406Z,99933.19
2019-05-06T03:27:38.704Z,99931.80
2019-05-06T03:30:05.837Z,99932.63
2019-05-06T03:32:37.587Z,99930.80
2019-05-06T03:35:23.035Z,99935.84
2019-05-06T03:37:29.256Z,99940.87
2019-05-06T03:39:55.628Z,99934.78
2019-05-06T03:42:23.167Z,99940.80
2019-05-06T03:44:53.318Z,99941.04
2019-05-06T03:47:34.430Z,99936.84
2019-05-06T03:50:00.316Z,99935.45
2019-05-06T03:52:28.440Z,99945.69
2019-05-06T03:54:57.054Z,99943.92
2019-05-06T03:57:26.577Z,99948.28
2019-05-06T03:59:53.564Z,99942.02
2019-05-06T04:02:20.176Z,99941.81
2019-05-06T04:04:46.541Z,99948.15
2019-05-06T04:07:14.058Z,99945.92
2019-05-06T04:09:43.935Z,99943.02
2019-05-06T04:12:09.161Z,99952.41
2019-05-06T04:14:35.470Z,99956.72
2019-05-06T04:17:04.186Z,99958.08
2019-05-06T04:19:33.470Z,99954.23
2019-05-06T04:22:03.689Z,99958.08
2019-05-06T04:24:33.711Z,99962.84
2019-05-06T04:27:43.060Z,99964.73
2019-05-06T04:30:17.839Z,99960.95
2019-05-06T04:32:53.215Z,99965.22
2019-05-06T04:35:22.974Z,99969.98
2019-05-06T04:37:49.822Z,99973.13
2019-05-06T04:40:17.052Z,99976.38
2019-05-06T04:42:44.728Z,99975.69
2019-05-06T04:45:13.552Z,99975.81
2019-05-06T04:47:39.705Z,99976.75
2019-05-06T04:50:07.364Z,99979.78
2019-05-06T04:52:34.581Z,99982.49
2019-05-06T04:55:03.356Z,99979.66
2019-05-06T04:57:33.354Z,99977.77
2019-05-06T04:59:58.462Z,99987.02
2019-05-06T05:02:26.296Z,99990.19
2019-05-06T05:04:53.231Z,99989.32
2019-05-06T05:07:22.312Z,99991.03
2019-05-06T05:09:48.119Z,99983.59
2019-05-06T05:12:19.100Z,99995.20
2019-05-06T05:15:03.259Z,99994.84
2019-05-06T05:17:33.103Z,99998.67
2019-05-06T05:20:02.066Z,99988.95
2019-05-06T05:22:28.482Z,99998.47
2019-05-06T05:24:54.834Z,100002.86
2019-05-06T05:27:21.941Z,99999.66
2019-05-06T05:29:49.486Z,99999.95
2019-05-06T05:32:15.921Z,100001.95
2019-05-06T05:34:43.571Z,99994.28
2019-05-06T05:37:12.087Z,99945.91
2019-05-06T05:39:38.489Z,99998.09
2019-05-06T05:42:09.758Z,100001.60
2019-05-06T05:44:37.991Z,100006.64
2019-05-06T05:47:04.443Z,100004.69
2019-05-06T05:49:33.379Z,100011.59
2019-05-06T05:51:59.846Z,100014.27
2019-05-06T05:54:26.367Z,100019.77
2019-05-06T05:56:52.996Z,100018.12
2019-05-06T05:59:19.792Z,100020.53
2019-05-06T06:01:46.165Z,100025.86
2019-05-06T06:04:13.084Z,100020.30
2019-05-06T06:06:39.840Z,100022.82
2019-05-06T06:09:06.685Z,100022.11
2019-05-06T06:11:41.982Z,100025.22
2019-05-06T06:14:28.810Z,100027.98
2019-05-06T06:17:02.019Z,100031.44
2019-05-06T06:19:45.685Z,100036.61
2019-05-06T06:22:16.830Z,100040.06
2019-05-06T06:24:43.342Z,100034.42
2019-05-06T06:27:12.544Z,100030.27
2019-05-06T06:29:41.711Z,100032.49
2019-05-06T06:32:18.943Z,100037.84
2019-05-06T06:34:45.278Z,100043.58
2019-05-06T06:37:33.209Z,100049.08
2019-05-06T06:40:02.569Z,100045.09
2019-05-06T06:42:29.176Z,100039.17
2019-05-06T06:44:55.599Z,100039.53
2019-05-06T06:47:22.581Z,100035.38
2019-05-06T06:49:49.259Z,100035.66
2019-05-06T06:52:16.695Z,100035.29
2019-05-06T06:54:43.819Z,100042.92
2019-05-06T06:57:15.062Z,100033.40
2019-05-06T06:59:46.473Z,100035.41
2019-05-06T07:02:15.088Z,100042.02
2019-05-06T07:04:43.443Z,100037.47
2019-05-06T07:07:12.765Z,100032.16
2019-05-06T07:09:38.631Z,100036.69
2019-05-06T07:12:05.002Z,100026.87
2019-05-06T07:14:32.643Z,100038.17
2019-05-06T07:17:02.425Z,100030.15
2019-05-06T07:19:33.474Z,100032.23
2019-05-06T07:21:59.856Z,100027.04
2019-05-06T07:24:26.195Z,100036.09
2019-05-06T07:26:54.732Z,100035.61
2019-05-06T07:29:24.272Z,100035.10
2019-05-06T07:31:49.337Z,100037.16
2019-05-06T07:34:15.799Z,100043.13
2019-05-06T07:36:43.082Z,100041.11
2019-05-06T07:39:09.604Z,100045.09
2019-05-06T07:41:47.539Z,100033.19
2019-05-06T07:44:27.327Z,100038.16
2019-05-06T07:47:15.556Z,100032.19
2019-05-06T07:49:43.245Z,100037.34
2019-05-06T07:52:12.213Z,100031.62
2019-05-06T07:54:38.133Z,100032.94
2019-05-06T07:57:04.451Z,100035.06
2019-05-06T07:59:33.262Z,100038.39
2019-05-06T08:01:59.012Z,100032.95
2019-05-06T08:04:25.345Z,100032.44
2019-05-06T08:06:52.302Z,100033.53
2019-05-06T08:09:19.027Z,100035.20
2019-05-06T08:11:45.366Z,100034.02
2019-05-06T08:14:13.047Z,100029.84
2019-05-06T08:16:44.233Z,100029.00
2019-05-06T08:19:11.930Z,100018.95
2019-05-06T08:21:40.176Z,100035.33
2019-05-06T08:24:06.511Z,100022.58
2019-05-06T08:26:33.136Z,100036.27
2019-05-06T08:28:59.477Z,100031.38
2019-05-06T08:31:25.800Z,100028.05
2019-05-06T08:33:53.283Z,100024.72
2019-05-06T08:36:22.556Z,100032.69
2019-05-06T08:38:55.652Z,100032.66
2019-05-06T08:41:22.753Z,100026.89
2019-05-06T08:43:49.241Z,100037.63
2019-05-06T08:46:15.591Z,100041.56
2019-05-06T08:48:42.838Z,100037.63
2019-05-06T08:51:13.072Z,100022.06
2019-05-06T08:53:42.444Z,100024.14
2019-05-06T08:56:12.624Z,100021.61
2019-05-06T08:58:45.622Z,100036.07
2019-05-06T09:01:32.508Z,100029.98
2019-05-06T09:04:08.691Z,100015.41
2019-05-06T09:06:30.632Z,100022.95
2019-05-06T09:08:57.004Z,100022.59
2019-05-06T09:11:25.909Z,100022.32
2019-05-06T09:13:52.289Z,100024.00
2019-05-06T09:16:18.657Z,100022.71
2019-05-06T09:18:44.950Z,100021.13
2019-05-06T09:21:12.293Z,100020.98
2019-05-06T09:23:39.264Z,100028.02
2019-05-06T09:26:07.558Z,100020.31
2019-05-06T09:28:35.844Z,100013.56
2019-05-06T09:31:09.581Z,100025.89
2019-05-06T09:33:49.452Z,100018.69
2019-05-06T09:36:16.167Z,100025.14
2019-05-06T09:38:42.604Z,100018.63
2019-05-06T09:41:09.005Z,100017.08
2019-05-06T09:43:35.351Z,100023.16
2019-05-06T09:46:02.307Z,100018.02
2019-05-06T09:48:33.027Z,100023.01
2019-05-06T09:50:59.076Z,100026.04
2019-05-06T09:53:27.406Z,100014.05
2019-05-06T09:56:03.351Z,100019.57
2019-05-06T09:58:32.325Z,100020.48
2019-05-06T10:01:02.515Z,100022.86
2019-05-06T10:03:28.948Z,100018.16
2019-05-06T10:05:55.359Z,100012.40
2019-05-06T10:08:22.776Z,100016.61
2019-05-06T10:10:58.650Z,100009.61
2019-05-06T10:13:17.470Z,100015.16
2019-05-06T10:15:43.977Z,100016.11
2019-05-06T10:18:13.402Z,100012.41
2019-05-06T10:20:43.478Z,100013.20
2019-05-06T10:23:11.817Z,100012.93
2019-05-06T10:25:38.360Z,100010.98
2019-05-06T10:28:25.165Z,100002.84
2019-05-06T10:30:51.549Z,100013.20
2019-05-06T10:33:22.439Z,100015.17
2019-05-06T10:35:48.772Z,100010.88
2019-05-06T10:38:36.131Z,100017.18
2019-05-06T10:41:12.879Z,100025.82
2019-05-06T10:43:56.144Z,100018.60
2019-05-06T10:46:22.721Z,100017.25
2019-05-06T10:48:49.017Z,100013.46
2019-05-06T10:51:17.291Z,100015.15
2019-05-06T10:53:44.713Z,100016.53
2019-05-06T10:56:25.949Z,100006.98
2019-05-06T10:58:52.758Z,100009.38
2019-05-06T11:01:23.127Z,100017.48
2019-05-06T11:03:49.527Z,100015.92
2019-05-06T11:06:16.057Z,100006.34
2019-05-06T11:08:42.461Z,100003.48
2019-05-06T11:11:15.430Z,100007.12
2019-05-06T11:13:37.445Z,100003.45
2019-05-06T11:16:03.752Z,100003.56
2019-05-06T11:18:30.102Z,100002.12
2019-05-06T11:20:56.577Z,99993.45
2019-05-06T11:23:23.173Z,99990.41
2019-05-06T11:25:49.485Z,99993.16
2019-05-06T11:28:35.293Z,99991.98
2019-05-06T11:31:03.865Z,99990.18
2019-05-06T11:33:44.165Z,100003.83
2019-05-06T11:36:15.265Z,99987.34
2019-05-06T11:38:43.191Z,99991.95
2019-05-06T11:41:09.803Z,99988.89
2019-05-06T11:43:36.227Z,99997.20
2019-05-06T11:46:02.713Z,99996.68
2019-05-06T11:48:29.239Z,99995.08
2019-05-06T11:50:57.456Z,99998.38
2019-05-06T11:53:23.787Z,99993.89
2019-05-06T11:55:54.419Z,99996.81
2019-05-06T11:58:22.376Z,99998.14
2019-05-06T12:00:48.552Z,100003.63
2019-05-06T12:03:15.318Z,99995.13
2019-05-06T12:05:41.886Z,99993.69
2019-05-06T12:08:08.548Z,99997.51
2019-05-06T12:10:36.074Z,99992.54
2019-05-06T12:13:02.896Z,100000.73
2019-05-06T12:15:29.407Z,99989.20
2019-05-06T12:17:55.768Z,99994.84
2019-05-06T12:20:22.250Z,100002.83
2019-05-06T12:22:48.752Z,99994.79
2019-05-06T12:25:15.846Z,99993.65
2019-05-06T12:27:45.564Z,99990.27
2019-05-06T12:30:23.087Z,99993.84
2019-05-06T12:32:49.786Z,99987.17
2019-05-06T12:35:16.121Z,99981.16
2019-05-06T12:37:44.529Z,99982.24
2019-05-06T12:40:12.488Z,99989.22
2019-05-06T12:42:43.801Z,99972.94
2019-05-06T12:45:19.394Z,99973.88
2019-05-06T12:47:53.360Z,99989.04
2019-05-06T12:50:22.505Z,99984.91
2019-05-06T12:52:48.595Z,100006.40
2019-05-06T12:55:21.324Z,99988.72
2019-05-06T12:57:44.611Z,99993.99
2019-05-06T13:00:13.176Z,99991.16
2019-05-06T13:02:40.348Z,100003.39
2019-05-06T13:05:07.169Z,99995.02
2019-05-06T13:07:46.938Z,99990.51
2019-05-06T13:10:17.566Z,99992.20
2019-05-06T13:12:45.857Z,99997.66
2019-05-06T13:15:13.649Z,99995.38
2019-05-06T13:17:42.394Z,99989.64
2019-05-06T13:20:08.597Z,99990.27
2019-05-06T13:22:53.367Z,99993.47
2019-05-06T13:25:20.120Z,99991.63
2019-05-06T13:27:47.343Z,99987.88
2019-05-06T13:30:14.554Z,99996.89
2019-05-06T13:32:45.770Z,99993.66
2019-05-06T13:35:12.492Z,99988.50
2019-05-06T13:37:39.126Z,100000.85
2019-05-06T13:40:05.902Z,99985.27
2019-05-06T13:42:34.242Z,99985.81
2019-05-06T13:45:02.278Z,99988.91
2019-05-06T13:47:44.093Z,99979.72
2019-05-06T13:50:13.026Z,99978.70
2019-05-06T13:52:42.523Z,99982.09
2019-05-06T13:55:09.597Z,99975.96
2019-05-06T13:57:39.042Z,99971.03
2019-05-06T14:00:05.307Z,99978.69
2019-05-06T14:02:35.474Z,99975.41
2019-05-06T14:05:05.078Z,99975.80
2019-05-06T14:07:34.443Z,99971.80
2019-05-06T14:09:59.729Z,99975.31
2019-05-06T14:12:27.075Z,99971.95
2019-05-06T14:14:54.669Z,99967.28
2019-05-06T14:17:22.454Z,99975.77
2019-05-06T14:19:48.993Z,99965.07
2019-05-06T14:22:15.335Z,99974.93
2019-05-06T14:24:43.587Z,99965.77
2019-05-06T14:27:11.528Z,99971.36
2019-05-06T14:29:43.757Z,99976.98
2019-05-06T14:32:12.325Z,99974.66
2019-05-06T14:34:38.337Z,99974.12
2019-05-06T14:37:04.966Z,99973.55
2019-05-06T14:39:49.124Z,99970.63
2019-05-06T14:42:04.222Z,99980.50
2019-05-06T14:44:49.457Z,99973.84
2019-05-06T14:47:15.765Z,99981.30
2019-05-06T14:49:43.350Z,99987.20
2019-05-06T14:52:09.996Z,99993.76
2019-05-06T14:54:38.238Z,99984.14
2019-05-06T14:57:13.003Z,99981.34
2019-05-06T14:59:42.009Z,99982.05
2019-05-06T15:02:07.782Z,99978.75
2019-05-06T15:04:34.409Z,99982.78
2019-05-06T15:07:02.138Z,99982.61
2019-05-06T15:09:28.656Z,99982.52
2019-05-06T15:11:55.090Z,99975.02
2019-05-06T15:14:22.709Z,99986.06
2019-05-06T15:16:49.737Z,99976.92
2019-05-06T15:19:16.045Z,99976.86
2019-05-06T15:21:42.926Z,99982.87
2019-05-06T15:24:09.474Z,99970.16
2019-05-06T15:26:35.818Z,99972.65
2019-05-06T15:29:03.322Z,99972.72
2019-05-06T15:31:34.676Z,99976.63
2019-05-06T15:34:02.983Z,99967.01
2019-05-06T15:36:34.587Z,99973.64
2019-05-06T15:39:02.389Z,99974.80
2019-05-06T15:41:31.961Z,99972.63
2019-05-06T15:43:59.229Z,99971.73
2019-05-06T15:46:25.822Z,99967.14
2019-05-06T15:48:53.006Z,99970.48
2019-05-06T15:51:22.302Z,99974.17
2019-05-06T15:53:49.488Z,99968.55
2019-05-06T15:56:15.854Z,99968.88
2019-05-06T15:58:42.523Z,99968.13
2019-05-06T16:01:09.150Z,99974.84
2019-05-06T16:03:38.613Z,99963.09
2019-05-06T16:06:05.347Z,99973.81
2019-05-06T16:08:32.198Z,99967.02
2019-05-06T16:10:59.148Z,99964.19
2019-05-06T16:13:25.730Z,99967.45
2019-05-06T16:15:53.187Z,99969.03
2019-05-06T16:18:23.419Z,99966.05
2019-05-06T16:20:50.148Z,99967.48
2019-05-06T16:23:18.462Z,99977.75
2019-05-06T16:25:45.056Z,99978.92
2019-05-06T16:28:12.903Z,99973.09
2019-05-06T16:30:39.628Z,99979.61
2019-05-06T16:33:05.971Z,99966.38
2019-05-06T16:35:33.504Z,99976.17
2019-05-06T16:38:02.226Z,99969.86
2019-05-06T16:40:28.457Z,99965.77
2019-05-06T16:42:54.911Z,99961.84
2019-05-06T16:45:23.478Z,99974.40
2019-05-06T16:47:49.756Z,99956.49
2019-05-06T16:50:17.250Z,99963.48
2019-05-06T16:52:45.485Z,99964.64
2019-05-06T16:55:16.425Z,99959.69
2019-05-06T16:57:44.804Z,99964.14
2019-05-06T17:00:13.520Z,99965.02
2019-05-06T17:02:55.912Z,99964.16
2019-05-06T17:05:33.679Z,99967.48
2019-05-06T17:08:00.339Z,99971.12
2019-05-06T17:10:26.701Z,99955.05
2019-05-06T17:12:53.702Z,99964.95
2019-05-06T17:15:20.248Z,99959.69
2019-05-06T17:17:48.178Z,99969.66
2019-05-06T17:20:14.891Z,99961.16
2019-05-06T17:22:42.371Z,99967.82
2019-05-06T17:25:10.081Z,99972.30
2019-05-06T17:27:38.544Z,99965.47
2019-05-06T17:30:15.926Z,99965.00
2019-05-06T17:32:44.294Z,99965.92
2019-05-06T17:35:12.594Z,99964.81
2019-05-06T17:37:54.154Z,99963.81
2019-05-06T17:40:22.949Z,99957.92
2019-05-06T17:42:49.724Z,99964.11
2019-05-06T17:45:35.116Z,99972.98
2019-05-06T17:48:20.504Z,99965.91
2019-05-06T17:51:05.544Z,99969.38
2019-05-06T17:53:34.283Z,99968.89
2019-05-06T17:56:01.829Z,99971.77
2019-05-06T17:58:28.292Z,99963.13
2019-05-06T18:00:55.441Z,99966.61
2019-05-06T18:03:22.053Z,99967.20
2019-05-06T18:05:48.394Z,99967.53
2019-05-06T18:08:14.801Z,99973.03
2019-05-06T18:10:42.684Z,99972.81
2019-05-06T18:13:09.388Z,99967.42
2019-05-06T18:15:35.717Z,99967.09
2019-05-06T18:18:02.273Z,99964.28
2019-05-06T18:20:28.922Z,99961.06
2019-05-06T18:22:55.327Z,99967.05
2019-05-06T18:25:23.030Z,99977.36
2019-05-06T18:27:49.706Z,99980.31
2019-05-06T18:30:24.085Z,99989.94
2019-05-06T18:32:45.313Z,99982.55
2019-05-06T18:35:13.102Z,99988.00
2019-05-06T18:37:39.629Z,99987.05
2019-05-06T18:40:06.226Z,99991.45
2019-05-06T18:42:33.396Z,99995.25
2019-05-06T18:44:59.822Z,99999.61
2019-05-06T18:47:26.502Z,99998.70
2019-05-06T18:49:52.864Z,100001.09
2019-05-06T18:52:19.186Z,100004.18
2019-05-06T18:54:52.288Z,100007.28
2019-05-06T18:57:18.456Z,100008.44
2019-05-06T18:59:45.309Z,100014.56
2019-05-06T19:02:13.128Z,100023.83
2019-05-06T19:04:42.055Z,100023.42
2019-05-06T19:07:13.328Z,100025.91
2019-05-06T19:09:39.044Z,100027.68
2019-05-06T19:12:05.389Z,100032.16
2019-05-06T19:14:32.939Z,100037.06
2019-05-06T19:16:59.609Z,100040.84
2019-05-06T19:19:25.932Z,100039.11
2019-05-06T19:21:52.643Z,100041.07
2019-05-06T19:24:19.214Z,100037.19
2019-05-06T19:26:45.794Z,100033.84
2019-05-06T19:29:12.349Z,100043.39
2019-05-06T19:31:38.842Z,100040.72
2019-05-06T19:34:05.521Z,100046.03
2019-05-06T19:36:34.565Z,100039.38
2019-05-06T19:39:02.283Z,100040.77
2019-05-06T19:41:30.510Z,100043.69
2019-05-06T19:43:57.513Z,100044.09
2019-05-06T19:46:24.324Z,100047.55
2019-05-06T19:48:52.442Z,100047.85
2019-05-06T19:51:18.949Z,100049.26
2019-05-06T19:53:45.273Z,100050.02
2019-05-06T19:56:17.175Z,100048.91
2019-05-06T19:58:43.537Z,100046.10
2019-05-06T20:01:11.004Z,100049.20
2019-05-06T20:03:37.670Z,100051.11
2019-05-06T20:06:06.246Z,100053.26
2019-05-06T20:08:34.518Z,100048.23
2019-05-06T20:11:03.207Z,100049.55
2019-05-06T20:13:29.611Z,100040.95
2019-05-06T20:15:55.984Z,100049.16
2019-05-06T20:18:22.333Z,100046.28
2019-05-06T20:20:49.142Z,100046.19
2019-05-06T20:23:15.784Z,100043.93
2019-05-06T20:25:44.540Z,100042.62
2019-05-06T20:28:10.350Z,100050.36
2019-05-06T20:30:37.057Z,100038.16
2019-05-06T20:33:04.908Z,100039.30
2019-05-06T20:35:32.260Z,100042.89
2019-05-06T20:37:58.822Z,100040.11
2019-05-06T20:40:27.715Z,100041.41
2019-05-06T20:42:54.529Z,100042.80
2019-05-06T20:45:22.402Z,100044.74
2019-05-06T20:47:48.808Z,100046.34
2019-05-06T20:50:15.318Z,100046.80
2019-05-06T20:52:42.463Z,100040.89
2019-05-06T20:55:15.935Z,100039.53
2019-05-06T20:57:38.704Z,100042.98
2019-05-06T21:00:07.465Z,100032.33
2019-05-06T21:02:35.714Z,100031.41
2019-05-06T21:05:06.739Z,100027.70
2019-05-06T21:07:34.277Z,100030.77
2019-05-06T21:10:02.221Z,100032.47
2019-05-06T21:12:29.813Z,100031.98
2019-05-06T21:14:56.142Z,100030.59
2019-05-06T21:17:22.985Z,100026.49
2019-05-06T21:19:51.812Z,100034.13
2019-05-06T21:22:17.885Z,100032.17
2019-05-06T21:24:44.493Z,100031.62
2019-05-06T21:27:12.366Z,100038.05
2019-05-06T21:29:42.042Z,100031.62
2019-05-06T21:32:08.423Z,100024.98
2019-05-06T21:34:34.765Z,100029.06
2019-05-06T21:37:02.832Z,100029.16
2019-05-06T21:39:29.480Z,100022.18
2019-05-06T21:41:57.384Z,100028.77
2019-05-06T21:44:23.806Z,100030.81
2019-05-06T21:46:50.139Z,100035.54
2019-05-06T21:49:17.058Z,100025.30
2019-05-06T21:51:43.760Z,100025.69
2019-05-06T21:54:12.327Z,100022.12
2019-05-06T21:56:38.777Z,100026.85
2019-05-06T21:59:05.416Z,100022.10
2019-05-06T22:01:33.037Z,100018.11
2019-05-06T22:03:59.910Z,100018.73
2019-05-06T22:06:26.466Z,100022.56
2019-05-06T22:08:52.910Z,100018.47
2019-05-06T22:11:19.545Z,100021.88
2019-05-06T22:13:58.002Z,100023.27
2019-05-06T22:16:14.502Z,100014.61
2019-05-06T22:18:43.188Z,100022.23
2019-05-06T22:21:11.399Z,100017.02
2019-05-06T22:23:51.523Z,100013.77
2019-05-06T22:26:18.306Z,100010.94
2019-05-06T22:28:44.944Z,100011.70
2019-05-06T22:31:11.250Z,100014.30
2019-05-06T22:33:37.588Z,100006.46
2019-05-06T22:36:03.942Z,100007.68
2019-05-06T22:38:30.279Z,100011.25
2019-05-06T22:40:56.881Z,100003.28
2019-05-06T22:43:23.224Z,100014.45
2019-05-06T22:45:49.553Z,100007.53
2019-05-06T22:48:15.893Z,100003.20
2019-05-06T22:50:42.478Z,100002.52
2019-05-06T22:53:09.006Z,100003.16
2019-05-06T22:55:35.712Z,100005.88
2019-05-06T22:58:02.579Z,100000.30
2019-05-06T23:00:33.089Z,100001.55
2019-05-06T23:03:02.289Z,100001.09
2019-05-06T23:05:32.468Z,100008.53
2019-05-06T23:07:58.512Z,100004.48
2019-05-06T23:10:24.998Z,99997.67
2019-05-06T23:12:52.328Z,100009.89
2019-05-06T23:15:18.987Z,99997.03
2019-05-06T23:17:45.317Z,99999.41
2019-05-06T23:20:12.133Z,99998.38
2019-05-06T23:22:38.815Z,100003.79
2019-05-06T23:25:05.453Z,100002.56
2019-05-06T23:27:31.782Z,99999.38
2019-05-06T23:29:58.137Z,100001.77
2019-05-06T23:32:24.434Z,100007.44
2019-05-06T23:34:52.349Z,100005.73
2019-05-06T23:37:18.580Z,100015.05
2019-05-06T23:40:42.952Z,100004.36
2019-05-06T23:44:06.111Z,100007.83
2019-05-06T23:47:29.489Z,100000.25
2019-05-06T23:50:52.360Z,100011.61
2019-05-06T23:54:15.043Z,100010.86
2019-05-06T23:56:43.834Z,100003.80
2019-05-06T23:59:16.512Z,100006.30
